Time;durP1;ratioP1;P1;durP2;ratioP2;P2;SDS_P1;SDS_P2;PMS_P1;PMS_P2;Temp;Humidity;BMP_temperature;BMP_pressure;BME280_temperature;BME280_humidity;BME280_pressure;Samples;Min_cycle;Max_cycle;Signal;HPM_P1;HPM_P2
2021/12/14 06:40:19;;;;;;;1.77;1.67;;;;;;;;;;6200164;22;20028;-85
2021/12/14 06:42:46;;;;;;;;;;;;;;;;;;6222118;23;20055;-85
2021/12/14 06:45:16;;;;;;;1.98;1.80;;;;;;;;;;6249007;23;19907;-87
2021/12/14 06:47:43;;;;;;;5.25;2.33;;;;;;;;;;6247144;23;20370;-87
2021/12/14 06:50:15;;;;;;;3.78;2.97;;;;;;;;;;6247132;23;20004;-84
2021/12/14 06:52:41;;;;;;;4.95;3.25;;;;;;;;;;6247944;23;20027;-85
2021/12/14 09:32:44;;;;;;;2.40;2.10;;;;;;;;;;6244260;23;20285;-83
2021/12/14 09:35:16;;;;;;;2.97;2.55;;;;;;;;;;6246302;23;20012;-86
2021/12/14 09:37:43;;;;;;;3.08;2.63;;;;;;;;;;6219628;23;20038;-86
2021/12/14 09:40:15;;;;;;;3.78;2.92;;;;;;;;;;6246248;23;20008;-85
2021/12/14 09:42:41;;;;;;;4.30;3.10;;;;;;;;;;6246441;23;20000;-85
2021/12/14 09:45:33;;;;;;;3.30;2.97;;;;;;;;;;6219580;23;20004;-86
2021/12/14 09:48:00;;;;;;;4.13;3.13;;;;;;;;;;6246362;23;20001;-82
2021/12/14 09:50:31;;;;;;;6.43;3.33;;;;;;;;;;6219334;23;20088;-81
2021/12/14 09:52:59;;;;;;;5.10;3.75;;;;;;;;;;6246499;23;20416;-81
2021/12/14 09:55:29;;;;;;;3.58;3.17;;;;;;;;;;6219461;23;20016;-83
2021/12/14 09:57:59;;;;;;;3.78;3.30;;;;;;;;;;6247312;23;20004;-83
2021/12/14 10:00:31;;;;;;;4.10;3.00;;;;;;;;;;6248668;23;20083;-86
2021/12/14 10:03:00;;;;;;;4.97;3.65;;;;;;;;;;6221318;23;20004;-84
2021/12/14 10:05:37;;;;;;;6.47;4.38;;;;;;;;;;6248675;23;20600;-89
2021/12/14 10:08:14;;;;;;;5.40;3.78;;;;;;;;;;6248982;23;20003;-91
2021/12/14 10:10:45;;;;;;;3.28;2.80;;;;;;;;;;6249060;23;20007;-91
2021/12/14 10:13:11;;;;;;;3.88;2.63;;;;;;;;;;6222520;23;20030;-89
2021/12/14 10:15:41;;;;;;;3.92;2.70;;;;;;;;;;6221974;23;20008;-89
2021/12/14 10:18:13;;;;;;;4.75;2.30;;;;;;;;;;6221786;23;20000;-88
2021/12/14 10:20:53;;;;;;;3.78;2.58;;;;;;;;;;6248980;23;20011;-89
2021/12/14 10:23:24;;;;;;;3.25;2.38;;;;;;;;;;6248931;23;19996;-91
2021/12/14 10:25:51;;;;;;;5.32;3.22;;;;;;;;;;6248832;23;20009;-89
2021/12/14 10:28:17;;;;;;;5.00;3.13;;;;;;;;;;6249031;23;20023;-91
2021/12/14 10:31:08;;;;;;;2.92;2.50;;;;;;;;;;6249178;23;20023;-90
2021/12/14 10:33:35;;;;;;;3.47;2.50;;;;;;;;;;6221927;23;20012;-87
2021/12/14 10:36:15;;;;;;;2.67;2.17;;;;;;;;;;6221379;23;20057;-87
2021/12/14 10:39:02;;;;;;;2.97;2.13;;;;;;;;;;6221827;23;20423;-91
2021/12/14 10:44:10;;;;;;;3.92;3.20;;;;;;;;;;6248947;23;20126;-89
2021/12/14 10:46:45;;;;;;;17.42;8.77;;;;;;;;;;6222145;23;20424;-90
2021/12/14 10:49:13;;;;;;;7.63;5.05;;;;;;;;;;6222338;23;20000;-90
2021/12/14 10:51:41;;;;;;;10.00;3.78;;;;;;;;;;6221859;23;20007;-88
2021/12/14 10:54:10;;;;;;;5.53;3.30;;;;;;;;;;6221511;23;20304;-89
2021/12/14 10:57:02;;;;;;;6.95;4.22;;;;;;;;;;6221308;23;20062;-87
2021/12/14 10:59:32;;;;;;;13.95;6.90;;;;;;;;;;6221411;23;20015;-89
2021/12/14 11:01:58;;;;;;;;;;;;;;;;;;6221947;23;20009;-89
2021/12/14 11:04:37;;;;;;;27.80;14.15;;;;;;;;;;6221655;23;19933;-90
2021/12/14 11:07:07;;;;;;;21.07;10.90;;;;;;;;;;6248240;23;20012;-91
2021/12/14 11:09:42;;;;;;;8.38;6.00;;;;;;;;;;6221541;23;20269;-89
2021/12/14 11:12:27;;;;;;;4.40;3.47;;;;;;;;;;6221060;23;20005;-89
2021/12/14 11:15:18;;;;;;;6.45;2.78;;;;;;;;;;6221707;23;20011;-91
2021/12/14 11:20:34;;;;;;;6.78;4.43;;;;;;;;;;6247961;23;20386;-88
2021/12/14 11:23:19;;;;;;;6.38;4.03;;;;;;;;;;6248916;23;20007;-90
2021/12/14 11:25:49;;;;;;;6.53;3.80;;;;;;;;;;6221814;23;20043;-91
2021/12/14 11:28:33;;;;;;;4.07;3.22;;;;;;;;;;6248338;23;20444;-91
2021/12/14 11:31:17;;;;;;;5.65;3.30;;;;;;;;;;6221995;23;20004;-91
2021/12/14 11:33:48;;;;;;;7.07;3.70;;;;;;;;;;6221493;23;20016;-89
2021/12/14 11:36:17;;;;;;;5.55;3.47;;;;;;;;;;6221582;23;20453;-91
2021/12/14 11:38:49;;;;;;;4.70;2.92;;;;;;;;;;6222196;23;20443;-92
2021/12/14 11:41:47;;;;;;;5.53;3.65;;;;;;;;;;6224620;23;20008;-92
2021/12/14 11:44:27;;;;;;;6.25;4.80;;;;;;;;;;6223195;23;20058;-89
2021/12/14 11:47:01;;;;;;;13.18;5.55;;;;;;;;;;6221460;23;20008;-91
2021/12/14 11:49:41;;;;;;;8.05;5.60;;;;;;;;;;6221432;23;20015;-90
2021/12/14 11:52:07;;;;;;;8.30;4.88;;;;;;;;;;6220885;23;20000;-91
2021/12/14 11:54:46;;;;;;;10.40;4.68;;;;;;;;;;6248317;23;20130;-89
2021/12/14 11:57:14;;;;;;;9.05;4.97;;;;;;;;;;6220731;23;20004;-88
2021/12/14 11:59:40;;;;;;;7.30;4.47;;;;;;;;;;6220996;23;20414;-88
2021/12/14 12:02:06;;;;;;;8.60;3.75;;;;;;;;;;6221242;23;20004;-87
2021/12/14 12:04:35;;;;;;;5.35;3.85;;;;;;;;;;6221126;23;20014;-88
2021/12/14 12:09:44;;;;;;;5.53;3.65;;;;;;;;;;6250103;23;20007;-89
2021/12/14 12:12:25;;;;;;;4.53;3.53;;;;;;;;;;6248088;23;19996;-90
2021/12/14 12:14:56;;;;;;;4.55;3.50;;;;;;;;;;6221322;23;20088;-88
2021/12/14 12:17:50;;;;;;;5.93;3.38;;;;;;;;;;6247663;23;20419;-85
2021/12/14 12:20:22;;;;;;;6.10;4.25;;;;;;;;;;6220532;23;20008;-88
2021/12/14 12:22:53;;;;;;;8.90;4.78;;;;;;;;;;6247709;23;20001;-89
2021/12/14 12:25:29;;;;;;;15.57;5.57;;;;;;;;;;6220833;23;20008;-87
2021/12/14 12:28:10;;;;;;;7.57;5.03;;;;;;;;;;6247774;23;20004;-90
2021/12/14 12:31:05;;;;;;;12.18;4.00;;;;;;;;;;6248229;23;20487;-89
2021/12/14 12:33:37;;;;;;;16.98;4.43;;;;;;;;;;6246408;23;20008;-82
2021/12/14 12:36:14;;;;;;;12.90;4.15;;;;;;;;;;6246923;23;20061;-86
2021/12/14 12:39:06;;;;;;;9.68;4.00;;;;;;;;;;6246808;23;20419;-84
2021/12/14 12:41:40;;;;;;;5.05;2.85;;;;;;;;;;6239408;23;20004;-87
2021/12/14 12:44:26;;;;;;;3.95;3.20;;;;;;;;;;6246958;23;20065;-84
2021/12/14 12:46:56;;;;;;;3.72;2.70;;;;;;;;;;6246797;23;20000;-85
2021/12/14 17:57:38;;;;;;;10.48;7.68;;;;;;;;;;6194927;23;20503;-91
2021/12/14 18:00:18;;;;;;;11.50;8.25;;;;;;;;;;6184415;23;20024;-85
2021/12/14 18:02:53;;;;;;;11.57;7.78;;;;;;;;;;6185992;23;20001;-85
2021/12/14 18:05:25;;;;;;;10.55;7.60;;;;;;;;;;6181230;23;20401;-82
2021/12/14 18:07:58;;;;;;;13.38;8.10;;;;;;;;;;6156429;23;20425;-84
2021/12/14 18:10:37;;;;;;;9.00;6.93;;;;;;;;;;6156238;23;20006;-83
2021/12/14 18:13:06;;;;;;;10.97;6.40;;;;;;;;;;6154980;23;20081;-84
2021/12/14 18:15:34;;;;;;;10.00;7.22;;;;;;;;;;6155138;23;20013;-80
2021/12/14 18:20:52;;;;;;;47.88;27.48;;;;;;;;;;6157129;23;20016;-83
2021/12/14 18:23:21;;;;;;;19.92;12.35;;;;;;;;;;6157859;23;20012;-84
2021/12/14 18:25:59;;;;;;;25.52;14.35;;;;;;;;;;6158143;23;20066;-84
2021/12/14 18:28:25;;;;;;;8.48;6.50;;;;;;;;;;6159107;23;20093;-84
2021/12/14 18:30:52;;;;;;;9.40;6.30;;;;;;;;;;6158081;23;20025;-86
2021/12/14 18:33:18;;;;;;;82.45;27.52;;;;;;;;;;6157873;23;20009;-87
2021/12/14 18:35:44;;;;;;;15.63;9.25;;;;;;;;;;6157910;23;20009;-85
2021/12/14 18:38:18;;;;;;;10.55;7.30;;;;;;;;;;6158425;23;20064;-87
2021/12/14 18:40:54;;;;;;;21.88;10.52;;;;;;;;;;6158293;23;20002;-88
2021/12/14 18:43:35;;;;;;;16.90;9.85;;;;;;;;;;6157922;23;20056;-84
2021/12/14 18:46:09;;;;;;;11.15;7.60;;;;;;;;;;6158262;23;20002;-84
2021/12/14 18:51:38;;;;;;;17.83;8.52;;;;;;;;;;6158766;23;20440;-84
2021/12/14 18:54:08;;;;;;;13.82;7.82;;;;;;;;;;6157942;23;20001;-85
2021/12/14 18:56:36;;;;;;;14.45;8.18;;;;;;;;;;6158074;23;20013;-84
2021/12/14 18:59:21;;;;;;;7.97;6.40;;;;;;;;;;6157881;23;20010;-85
2021/12/14 19:01:51;;;;;;;9.95;6.47;;;;;;;;;;6157932;23;20376;-89
2021/12/14 19:04:20;;;;;;;8.25;5.50;;;;;;;;;;6157586;23;20476;-85
2021/12/14 19:06:55;;;;;;;5.90;4.90;;;;;;;;;;6157628;23;20429;-85
2021/12/14 19:09:31;;;;;;;7.30;4.93;;;;;;;;;;6157243;23;20048;-84
2021/12/14 19:12:07;;;;;;;8.75;5.15;;;;;;;;;;6157878;23;20084;-85
2021/12/14 19:14:34;;;;;;;6.85;5.05;;;;;;;;;;6155970;23;20016;-85
2021/12/14 19:17:03;;;;;;;12.60;5.68;;;;;;;;;;6157922;23;20302;-86
2021/12/14 19:19:35;;;;;;;13.75;8.57;;;;;;;;;;6157763;23;20032;-84
2021/12/14 19:22:11;;;;;;;15.10;9.05;;;;;;;;;;6158012;23;20001;-84
2021/12/14 19:24:41;;;;;;;11.57;7.50;;;;;;;;;;6157593;23;20009;-83
2021/12/14 19:27:14;;;;;;;10.18;6.10;;;;;;;;;;6157804;23;20035;-84
2021/12/14 19:29:48;;;;;;;9.20;6.38;;;;;;;;;;6157260;23;20033;-84
2021/12/14 19:32:19;;;;;;;11.20;6.40;;;;;;;;;;6155654;23;20076;-84
2021/12/14 19:35:00;;;;;;;10.23;7.72;;;;;;;;;;6157218;23;20058;-84
2021/12/14 19:37:30;;;;;;;9.23;6.45;;;;;;;;;;6155441;23;20019;-85
2021/12/14 19:39:59;;;;;;;11.73;7.45;;;;;;;;;;6155775;23;20005;-86
2021/12/14 19:42:30;;;;;;;12.00;6.32;;;;;;;;;;6180227;23;20056;-84
2021/12/14 19:45:01;;;;;;;11.15;7.35;;;;;;;;;;6179935;23;20014;-85
2021/12/14 19:47:32;;;;;;;10.52;7.85;;;;;;;;;;6157184;23;20479;-86
2021/12/14 19:50:13;;;;;;;7.13;5.97;;;;;;;;;;6157622;23;20028;-86
2021/12/14 19:52:48;;;;;;;17.25;14.57;;;;;;;;;;6157249;23;20053;-86
2021/12/14 19:55:19;;;;;;;12.80;9.73;;;;;;;;;;6157601;23;20360;-86
2021/12/14 19:57:49;;;;;;;13.45;10.60;;;;;;;;;;6157629;23;20064;-85
2021/12/14 20:00:28;;;;;;;13.38;7.43;;;;;;;;;;6157315;23;20005;-86
2021/12/14 20:03:01;;;;;;;10.77;6.00;;;;;;;;;;6157208;23;20448;-86
2021/12/14 20:05:31;;;;;;;9.45;6.45;;;;;;;;;;6180559;23;20018;-87
2021/12/14 20:08:21;;;;;;;6.93;4.10;;;;;;;;;;6157577;23;20009;-82
2021/12/14 20:10:55;;;;;;;6.75;5.10;;;;;;;;;;6157468;23;20012;-84
2021/12/14 20:13:22;;;;;;;8.13;4.93;;;;;;;;;;6156874;23;20012;-83
2021/12/14 20:15:52;;;;;;;6.18;4.57;;;;;;;;;;6157741;23;20060;-86
2021/12/14 20:18:32;;;;;;;7.03;5.20;;;;;;;;;;6157472;23;20081;-86
2021/12/14 20:21:00;;;;;;;;;;;;;;;;;;6157562;23;20002;-87
2021/12/14 20:23:33;;;;;;;6.82;5.00;;;;;;;;;;6155486;23;20039;-86
2021/12/14 20:26:08;;;;;;;9.45;5.72;;;;;;;;;;6157246;23;20421;-86
2021/12/14 20:28:44;;;;;;;6.88;5.40;;;;;;;;;;6156177;23;20433;-81
2021/12/14 20:31:21;;;;;;;8.35;5.63;;;;;;;;;;6156411;23;20009;-80
2021/12/14 20:34:16;;;;;;;9.38;6.53;;;;;;;;;;6156632;23;20005;-86
2021/12/14 20:36:45;;;;;;;8.18;6.18;;;;;;;;;;6156613;23;20067;-86
2021/12/14 20:39:14;;;;;;;12.93;6.88;;;;;;;;;;6156460;23;20484;-80
2021/12/14 20:41:58;;;;;;;10.80;6.85;;;;;;;;;;6156256;23;20004;-85
2021/12/14 20:47:27;;;;;;;8.18;5.93;;;;;;;;;;6149906;23;20013;-80
2021/12/14 20:49:52;;;;;;;7.00;5.10;;;;;;;;;;6156874;23;19997;-81
2021/12/14 20:52:29;;;;;;;20.63;5.70;;;;;;;;;;6156929;23;20013;-86
2021/12/14 20:55:24;;;;;;;7.05;5.15;;;;;;;;;;6156725;23;20417;-86
2021/12/14 20:57:57;;;;;;;7.03;4.60;;;;;;;;;;6153064;23;20025;-86
2021/12/14 21:00:41;;;;;;;6.75;4.95;;;;;;;;;;6156697;23;20012;-85
2021/12/14 21:03:07;;;;;;;50.35;30.77;;;;;;;;;;6156292;23;20060;-82
2021/12/14 21:05:36;;;;;;;12.15;8.50;;;;;;;;;;6156480;23;20005;-86
2021/12/14 21:08:14;;;;;;;10.18;6.25;;;;;;;;;;6156571;23;20413;-82
2021/12/14 21:10:48;;;;;;;66.78;27.65;;;;;;;;;;6156500;23;20487;-81
2021/12/14 21:13:30;;;;;;;76.32;29.80;;;;;;;;;;6156280;23;20009;-86
2021/12/14 21:15:56;;;;;;;41.95;17.38;;;;;;;;;;6155958;23;20013;-87
2021/12/14 21:18:21;;;;;;;8.75;6.00;;;;;;;;;;6156688;23;20413;-86
2021/12/14 21:20:48;;;;;;;15.13;7.40;;;;;;;;;;6156535;23;20005;-86
2021/12/14 21:23:17;;;;;;;9.32;6.78;;;;;;;;;;6156752;23;20307;-86
2021/12/14 21:25:49;;;;;;;24.88;12.18;;;;;;;;;;6156091;23;20005;-86
2021/12/14 21:28:20;;;;;;;18.75;12.63;;;;;;;;;;6156541;23;20005;-86
2021/12/14 21:30:53;;;;;;;15.93;11.63;;;;;;;;;;6156539;23;20002;-86
2021/12/14 21:33:21;;;;;;;17.80;10.85;;;;;;;;;;6156240;23;20048;-87
2021/12/14 21:36:05;;;;;;;16.30;11.45;;;;;;;;;;6156463;23;20373;-86
2021/12/14 21:38:41;;;;;;;14.77;8.77;;;;;;;;;;6156353;23;20425;-85
2021/12/14 21:41:20;;;;;;;13.98;9.70;;;;;;;;;;6156539;23;20016;-85
2021/12/14 21:44:00;;;;;;;12.98;9.32;;;;;;;;;;6156229;23;20073;-86
2021/12/14 21:46:46;;;;;;;11.93;9.32;;;;;;;;;;6156396;23;20443;-87
2021/12/14 21:49:21;;;;;;;13.82;9.45;;;;;;;;;;6156561;23;20001;-87
2021/12/14 21:51:53;;;;;;;11.60;7.95;;;;;;;;;;6156121;23;20417;-86
2021/12/14 21:54:22;;;;;;;9.38;7.30;;;;;;;;;;6156241;23;20006;-87
2021/12/14 21:56:48;;;;;;;11.02;7.00;;;;;;;;;;6156148;23;20006;-85
2021/12/14 21:59:14;;;;;;;9.55;7.28;;;;;;;;;;6156700;23;20066;-87
2021/12/14 22:01:40;;;;;;;8.50;6.68;;;;;;;;;;6156323;23;20047;-85
2021/12/14 22:04:07;;;;;;;9.70;6.72;;;;;;;;;;6156336;23;20001;-84
2021/12/14 22:06:33;;;;;;;8.55;6.57;;;;;;;;;;6156277;23;20009;-86
2021/12/14 22:08:59;;;;;;;10.50;7.25;;;;;;;;;;6156421;23;20475;-82
2021/12/14 22:11:26;;;;;;;7.43;6.10;;;;;;;;;;6156333;23;20006;-86
2021/12/14 22:13:54;;;;;;;8.32;6.07;;;;;;;;;;6156140;23;20005;-85
2021/12/14 22:16:42;;;;;;;8.18;6.03;;;;;;;;;;6156497;23;20133;-85
2021/12/14 22:19:14;;;;;;;10.25;6.85;;;;;;;;;;6156052;23;20002;-81
2021/12/14 22:21:40;;;;;;;7.80;5.63;;;;;;;;;;6156300;23;20329;-86
2021/12/14 22:24:06;;;;;;;12.32;6.60;;;;;;;;;;6154599;23;20008;-84
2021/12/14 22:26:32;;;;;;;9.27;6.15;;;;;;;;;;6156361;23;20025;-85
2021/12/14 22:28:58;;;;;;;11.02;6.65;;;;;;;;;;6156252;23;20015;-81
2021/12/14 22:31:23;;;;;;;7.57;5.78;;;;;;;;;;6155984;23;20016;-81
2021/12/14 22:33:50;;;;;;;8.80;6.40;;;;;;;;;;6156294;23;20051;-85
2021/12/14 22:36:17;;;;;;;10.27;7.55;;;;;;;;;;6155938;23;20012;-85
2021/12/14 22:38:43;;;;;;;12.38;7.43;;;;;;;;;;6156271;23;20356;-83
2021/12/14 22:46:29;;;;;;;31.05;16.15;;;;;;;;;;6156139;23;20048;-85
2021/12/14 22:48:56;;;;;;;27.25;14.40;;;;;;;;;;6156074;23;20073;-84
2021/12/14 22:51:21;;;;;;;56.33;23.30;;;;;;;;;;6156091;23;20008;-85
2021/12/14 22:53:49;;;;;;;152.48;53.47;;;;;;;;;;6155931;23;20005;-85
2021/12/14 22:56:15;;;;;;;342.92;134.00;;;;;;;;;;6156037;23;20095;-87
2021/12/14 22:58:41;;;;;;;269.10;135.48;;;;;;;;;;6155538;23;20009;-85
2021/12/14 23:01:15;;;;;;;76.18;37.58;;;;;;;;;;6155914;23;20032;-82
2021/12/14 23:03:41;;;;;;;39.08;20.10;;;;;;;;;;6155809;23;20325;-83
2021/12/14 23:06:08;;;;;;;29.92;15.55;;;;;;;;;;6157903;23;20016;-79
2021/12/14 23:08:35;;;;;;;13.07;7.97;;;;;;;;;;6157818;23;20002;-84
